createdAt,value
2022-11-25T00:01:23.511Z,100951.31
2022-11-25T00:03:52.260Z,100951.47
2022-11-25T00:06:21.194Z,100956.94
2022-11-25T00:08:51.543Z,100948.78
2022-11-25T00:11:19.240Z,100954.81
2022-11-25T00:13:48.118Z,100951.88
2022-11-25T00:16:18.748Z,100953.88
2022-11-25T00:18:48.609Z,100949.31
2022-11-25T00:21:18.816Z,100947.97
2022-11-25T00:23:52.506Z,100938.38
2022-11-25T00:26:21.479Z,100935.69
2022-11-25T00:28:50.058Z,100941.78
2022-11-25T00:31:19.589Z,100944.72
2022-11-25T00:33:47.584Z,100935.94
2022-11-25T00:36:30.541Z,100939.38
2022-11-25T00:39:00.459Z,100934.03
2022-11-25T00:41:47.584Z,100933.66
2022-11-25T00:44:36.523Z,100936.31
2022-11-25T00:47:15.503Z,100922.38
2022-11-25T00:49:46.483Z,100925.84
2022-11-25T00:52:16.698Z,100922.94
2022-11-25T00:54:45.121Z,100927.31
2022-11-25T00:57:13.306Z,100937.16
2022-11-25T00:59:41.260Z,100945.88
2022-11-25T01:02:10.327Z,100943.69
2022-11-25T01:04:38.269Z,100943.38
2022-11-25T01:07:06.877Z,100943.38
2022-11-25T01:09:35.663Z,100950.72
2022-11-25T01:12:05.070Z,100959.47
2022-11-25T01:14:33.249Z,100956.69
2022-11-25T01:17:01.069Z,100966.50
2022-11-25T01:19:28.756Z,100977.66
2022-11-25T01:21:56.199Z,100970.03
2022-11-25T01:24:24.263Z,100969.41
2022-11-25T01:26:55.808Z,100970.44
2022-11-25T01:29:23.420Z,100968.66
2022-11-25T01:31:57.420Z,100977.28
2022-11-25T01:34:26.923Z,100978.28
2022-11-25T01:36:58.211Z,100979.16
2022-11-25T01:39:32.005Z,100985.38
2022-11-25T01:42:01.193Z,100998.56
2022-11-25T01:44:30.473Z,101001.91
2022-11-25T01:47:18.712Z,101004.50
2022-11-25T01:49:51.122Z,100998.72
2022-11-25T01:52:43.810Z,100997.56
2022-11-25T01:55:16.163Z,101006.13
2022-11-25T01:57:48.742Z,101017.28
2022-11-25T02:00:16.976Z,101021.88
2022-11-25T02:02:53.714Z,101021.88
2022-11-25T02:05:33.747Z,101017.13
2022-11-25T02:08:02.140Z,101030.44
2022-11-25T02:10:32.280Z,101025.34
2022-11-25T02:13:00.337Z,101029.56
2022-11-25T02:15:31.591Z,101023.91
2022-11-25T02:17:59.179Z,101022.00
2022-11-25T02:20:27.926Z,101022.19
2022-11-25T02:23:25.683Z,101037.31
2022-11-25T02:25:54.912Z,101038.41
2022-11-25T02:28:25.215Z,101046.88
2022-11-25T02:30:53.633Z,101044.03
2022-11-25T02:33:21.774Z,101047.03
2022-11-25T02:35:58.510Z,101058.78
2022-11-25T02:38:33.597Z,101053.16
2022-11-25T02:41:11.752Z,101053.13
2022-11-25T02:43:40.463Z,101053.81
2022-11-25T02:46:21.917Z,101042.25
2022-11-25T02:49:09.315Z,101035.53
2022-11-25T02:51:40.111Z,101029.78
2022-11-25T02:54:10.563Z,101033.63
2022-11-25T02:56:38.374Z,101037.72
2022-11-25T02:59:06.096Z,101037.97
2022-11-25T03:01:35.435Z,101046.16
2022-11-25T03:04:07.000Z,101053.25
2022-11-25T03:06:34.754Z,101060.25
2022-11-25T03:09:02.344Z,101050.19
2022-11-25T03:11:49.330Z,101049.63
2022-11-25T03:14:17.090Z,101060.91
2022-11-25T03:16:44.885Z,101063.78
2022-11-25T03:19:12.596Z,101048.00
2022-11-25T03:21:40.301Z,101064.78
2022-11-25T03:24:08.197Z,101068.19
2022-11-25T03:26:35.807Z,101079.56
2022-11-25T03:29:03.368Z,101076.28
2022-11-25T03:31:31.826Z,101072.13
2022-11-25T03:33:59.428Z,101073.81
2022-11-25T03:36:26.853Z,101077.41
2022-11-25T03:38:54.263Z,101080.66
2022-11-25T03:41:21.654Z,101076.59
2022-11-25T03:43:49.242Z,101080.66
2022-11-25T03:46:17.718Z,101084.25
2022-11-25T03:48:45.532Z,101092.03
2022-11-25T03:51:13.591Z,101105.75
2022-11-25T03:53:41.163Z,101100.25
2022-11-25T03:56:10.243Z,101089.84
2022-11-25T03:58:37.707Z,101090.44
2022-11-25T04:01:06.772Z,101085.81
2022-11-25T04:03:34.813Z,101081.34
2022-11-25T04:06:02.351Z,101077.06
2022-11-25T04:08:31.089Z,101071.97
2022-11-25T04:10:59.514Z,101075.25
2022-11-25T04:13:30.707Z,101081.22
2022-11-25T04:15:58.385Z,101072.59
2022-11-25T04:18:26.733Z,101067.34
2022-11-25T04:20:56.851Z,101074.53
2022-11-25T04:23:24.554Z,101081.09
2022-11-25T04:26:02.550Z,101076.66
2022-11-25T04:28:35.371Z,101099.31
2022-11-25T04:31:07.042Z,101091.66
2022-11-25T04:33:36.612Z,101085.16
2022-11-25T04:36:04.476Z,101095.88
2022-11-25T04:38:32.146Z,101101.19
2022-11-25T04:40:59.937Z,101102.41
2022-11-25T04:43:28.923Z,101096.44
2022-11-25T04:46:17.969Z,101093.31
2022-11-25T04:48:51.229Z,101100.25
2022-11-25T04:51:20.050Z,101100.03
2022-11-25T04:53:51.416Z,101087.16
2022-11-25T04:56:20.092Z,101079.75
2022-11-25T04:59:08.808Z,101081.03
2022-11-25T05:01:40.269Z,101068.78
2022-11-25T05:04:31.092Z,101061.97
2022-11-25T05:06:58.727Z,101047.19
2022-11-25T05:09:26.804Z,101058.75
2022-11-25T05:12:19.711Z,101067.09
2022-11-25T05:14:48.568Z,101058.56
2022-11-25T05:17:19.664Z,101049.44
2022-11-25T05:19:47.560Z,101061.59
2022-11-25T05:22:22.267Z,101066.69
2022-11-25T05:24:49.820Z,101073.38
2022-11-25T05:27:18.893Z,101070.13
2022-11-25T05:29:50.146Z,101083.94
2022-11-25T05:32:20.458Z,101072.59
2022-11-25T05:34:47.909Z,101063.84
2022-11-25T05:37:17.723Z,101066.44
2022-11-25T05:39:54.263Z,101066.16
2022-11-25T05:42:33.894Z,101059.16
2022-11-25T05:45:04.933Z,101057.63
2022-11-25T05:47:33.821Z,101056.03
2022-11-25T05:50:01.810Z,101065.69
2022-11-25T05:52:30.728Z,101077.06
2022-11-25T05:55:01.236Z,101083.50
2022-11-25T05:57:29.257Z,101075.78
2022-11-25T06:00:06.338Z,101075.22
2022-11-25T06:02:42.600Z,101075.41
2022-11-25T06:05:13.238Z,101079.81
2022-11-25T06:07:40.887Z,101093.25
2022-11-25T06:10:08.912Z,101096.88
2022-11-25T06:12:39.004Z,101100.31
2022-11-25T06:15:07.190Z,101110.63
2022-11-25T06:17:36.513Z,101112.97
2022-11-25T06:20:10.615Z,101103.53
2022-11-25T06:22:38.302Z,101091.50
2022-11-25T06:25:06.663Z,101103.16
2022-11-25T06:28:04.641Z,101101.88
2022-11-25T06:30:24.549Z,101113.97
2022-11-25T06:33:06.539Z,101099.94
2022-11-25T06:35:34.058Z,101114.09
2022-11-25T06:38:03.381Z,101109.00
2022-11-25T06:40:30.992Z,101118.66
2022-11-25T06:42:58.593Z,101127.25
2022-11-25T06:45:26.177Z,101131.53
2022-11-25T06:47:54.063Z,101128.34
2022-11-25T06:50:21.620Z,101119.81
2022-11-25T06:52:49.080Z,101128.28
2022-11-25T06:55:17.424Z,101131.16
2022-11-25T06:57:45.138Z,101126.69
2022-11-25T07:00:13.037Z,101133.66
2022-11-25T07:02:45.313Z,101137.69
2022-11-25T07:05:15.698Z,101153.03
2022-11-25T07:07:43.341Z,101143.41
2022-11-25T07:10:11.109Z,101153.59
2022-11-25T07:12:38.704Z,101154.53
2022-11-25T07:15:06.721Z,101158.97
2022-11-25T07:17:34.212Z,101139.34
2022-11-25T07:20:01.684Z,101153.47
2022-11-25T07:22:29.212Z,101145.59
2022-11-25T07:24:56.803Z,101150.13
2022-11-25T07:27:24.270Z,101155.75
2022-11-25T07:30:03.484Z,101156.16
2022-11-25T07:32:39.267Z,101148.00
2022-11-25T07:35:07.140Z,101156.56
2022-11-25T07:37:34.718Z,101155.94
2022-11-25T07:40:02.203Z,101161.59
2022-11-25T07:42:29.745Z,101163.38
2022-11-25T07:44:57.370Z,101154.63
2022-11-25T07:47:41.240Z,101159.38
2022-11-25T07:50:09.134Z,101164.56
2022-11-25T07:52:40.373Z,101178.00
2022-11-25T07:55:08.290Z,101168.41
2022-11-25T07:57:35.892Z,101170.97
2022-11-25T08:00:04.850Z,101166.19
2022-11-25T08:02:39.210Z,101160.44
2022-11-25T08:05:07.351Z,101168.63
2022-11-25T08:07:36.726Z,101170.59
2022-11-25T08:10:04.740Z,101174.97
2022-11-25T08:12:32.924Z,101174.09
2022-11-25T08:15:00.416Z,101178.00
2022-11-25T08:17:27.828Z,101171.28
2022-11-25T08:19:55.528Z,101180.00
2022-11-25T08:22:23.227Z,101179.50
2022-11-25T08:24:50.649Z,101178.69
2022-11-25T08:27:18.052Z,101195.56
2022-11-25T08:29:45.465Z,101195.81
2022-11-25T08:32:12.826Z,101202.06
2022-11-25T08:34:43.672Z,101196.81
2022-11-25T08:37:12.615Z,101191.44
2022-11-25T08:39:56.082Z,101188.72
2022-11-25T08:42:24.051Z,101188.16
2022-11-25T08:44:53.653Z,101196.16
2022-11-25T08:47:22.388Z,101207.94
2022-11-25T08:49:54.119Z,101223.03
2022-11-25T08:52:22.730Z,101204.78
2022-11-25T08:54:58.927Z,101209.09
2022-11-25T08:57:26.384Z,101202.72
2022-11-25T08:59:54.132Z,101207.09
2022-11-25T09:02:21.591Z,101208.63
2022-11-25T09:07:53.362Z,101208.06
2022-11-25T09:10:21.854Z,101195.84
2022-11-25T09:12:49.390Z,101201.94
2022-11-25T09:15:16.945Z,101198.69
2022-11-25T09:17:44.426Z,101194.41
2022-11-25T09:20:12.355Z,101190.75
2022-11-25T09:22:40.004Z,101193.00
2022-11-25T09:25:08.034Z,101199.22
2022-11-25T09:27:35.437Z,101197.59
2022-11-25T09:30:03.148Z,101182.34
2022-11-25T09:32:30.762Z,101186.03
2022-11-25T09:34:58.314Z,101191.31
2022-11-25T09:37:25.710Z,101187.78
2022-11-25T09:39:56.083Z,101188.59
2022-11-25T09:43:02.608Z,101187.75
2022-11-25T09:46:09.994Z,101188.69
2022-11-25T09:49:00.353Z,101196.09
2022-11-25T09:51:55.260Z,101204.56
2022-11-25T09:54:30.542Z,101204.72
2022-11-25T09:57:18.099Z,101203.66
2022-11-25T09:59:59.600Z,101206.09
2022-11-25T10:02:37.811Z,101204.06
2022-11-25T10:05:27.528Z,101190.47
2022-11-25T10:08:01.708Z,101195.34
2022-11-25T10:10:36.573Z,101198.72
2022-11-25T10:13:05.713Z,101190.50
2022-11-25T10:15:40.344Z,101184.19
2022-11-25T10:18:51.834Z,101192.09
2022-11-25T10:21:19.294Z,101192.19
2022-11-25T10:23:46.743Z,101191.50
2022-11-25T10:26:16.527Z,101188.94
2022-11-25T10:28:56.036Z,101186.53
2022-11-25T10:31:36.434Z,101179.47
2022-11-25T10:34:18.483Z,101185.38
2022-11-25T10:36:47.170Z,101175.19
2022-11-25T10:39:18.392Z,101171.53
2022-11-25T10:42:08.415Z,101171.38
2022-11-25T10:44:41.100Z,101169.72
2022-11-25T10:47:32.847Z,101170.44
2022-11-25T10:50:27.482Z,101164.16
2022-11-25T10:53:13.126Z,101160.66
2022-11-25T10:55:57.694Z,101159.56
2022-11-25T10:58:37.910Z,101164.63
2022-11-25T11:01:20.411Z,101162.72
2022-11-25T11:04:03.560Z,101164.53
2022-11-25T11:06:36.464Z,101150.34
2022-11-25T11:09:04.368Z,101152.16
2022-11-25T11:11:32.457Z,101149.88
2022-11-25T11:14:13.861Z,101141.38
2022-11-25T11:16:45.431Z,101144.94
2022-11-25T11:19:31.156Z,101140.09
2022-11-25T11:22:16.551Z,101130.97
2022-11-25T11:24:44.024Z,101125.94
2022-11-25T11:27:24.844Z,101130.59
2022-11-25T11:30:10.875Z,101128.03
2022-11-25T11:32:42.376Z,101122.84
2022-11-25T11:35:22.212Z,101127.19
2022-11-25T11:37:54.461Z,101120.91
2022-11-25T11:40:46.654Z,101120.00
2022-11-25T11:43:39.430Z,101121.88
2022-11-25T11:46:15.725Z,101123.47
2022-11-25T11:48:53.556Z,101119.88
2022-11-25T11:51:29.958Z,101126.88
2022-11-25T11:54:21.027Z,101120.66
2022-11-25T11:56:57.923Z,101118.00
2022-11-25T11:59:38.294Z,101112.00
2022-11-25T12:02:23.860Z,101127.00
2022-11-25T12:05:17.773Z,101117.38
2022-11-25T12:07:45.184Z,101108.50
2022-11-25T12:10:15.902Z,101101.28
2022-11-25T12:13:20.336Z,101104.94
2022-11-25T12:16:13.196Z,101104.00
2022-11-25T12:18:53.795Z,101096.19
2022-11-25T12:21:56.824Z,101104.78
2022-11-25T12:24:42.784Z,101096.13
2022-11-25T12:27:21.371Z,101098.63
2022-11-25T12:30:08.082Z,101104.16
2022-11-25T12:32:38.237Z,101104.78
2022-11-25T12:35:11.423Z,101111.97
2022-11-25T12:37:46.061Z,101111.09
2022-11-25T12:40:44.307Z,101112.81
2022-11-25T12:43:20.716Z,101102.28
2022-11-25T12:45:54.604Z,101102.97
2022-11-25T12:48:22.114Z,101105.44
2022-11-25T12:51:17.257Z,101109.97
2022-11-25T12:53:57.933Z,101106.38
2022-11-25T12:56:44.807Z,101097.66
2022-11-25T12:59:58.008Z,101091.75
2022-11-25T13:02:50.922Z,101086.38
2022-11-25T13:05:46.181Z,101094.34
2022-11-25T13:08:28.500Z,101082.13
2022-11-25T13:11:24.220Z,101084.78
2022-11-25T13:14:13.688Z,101081.22
2022-11-25T13:16:45.955Z,101082.88
2022-11-25T13:19:18.119Z,101088.34
2022-11-25T13:22:06.395Z,101089.28
2022-11-25T13:24:39.436Z,101081.38
2022-11-25T13:27:29.736Z,101078.63
2022-11-25T13:29:58.132Z,101079.31
2022-11-25T13:32:25.545Z,101089.13
2022-11-25T13:35:30.985Z,101094.47
2022-11-25T13:37:58.479Z,101090.06
2022-11-25T13:40:26.453Z,101090.06
2022-11-25T13:42:55.534Z,101093.75
2022-11-25T13:45:44.549Z,101089.34
2022-11-25T13:48:19.921Z,101089.34
2022-11-25T13:51:11.755Z,101085.84
2022-11-25T13:53:38.968Z,101083.25
2022-11-25T13:56:36.606Z,101082.25
2022-11-25T13:59:16.664Z,101088.47
2022-11-25T14:01:46.880Z,101085.78
2022-11-25T14:04:16.437Z,101088.47
2022-11-25T14:06:51.294Z,101092.84
2022-11-25T14:09:27.574Z,101100.72
2022-11-25T14:12:06.242Z,101100.72
2022-11-25T14:15:09.070Z,101106.00
2022-11-25T14:18:02.609Z,101100.81
2022-11-25T14:20:47.905Z,101102.63
2022-11-25T14:23:26.638Z,101099.19
2022-11-25T14:25:57.623Z,101096.50
2022-11-25T14:28:42.217Z,101096.53
2022-11-25T14:31:16.550Z,101087.78
2022-11-25T14:33:51.078Z,101084.25
2022-11-25T14:36:26.655Z,101085.16
2022-11-25T14:39:02.184Z,101083.41
2022-11-25T14:41:37.143Z,101086.06
2022-11-25T14:44:14.422Z,101093.13
2022-11-25T14:46:57.888Z,101101.97
2022-11-25T14:49:51.664Z,101104.63
2022-11-25T14:52:35.973Z,101109.88
2022-11-25T14:55:05.794Z,101108.13
2022-11-25T14:57:37.352Z,101103.75
2022-11-25T15:00:15.537Z,101107.22
2022-11-25T15:03:18.007Z,101101.97
2022-11-25T15:05:54.416Z,101106.34
2022-11-25T15:08:22.970Z,101106.38
2022-11-25T15:10:58.163Z,101101.09
2022-11-25T15:13:35.983Z,101111.59
2022-11-25T15:16:15.992Z,101110.72
2022-11-25T15:19:14.695Z,101110.69
2022-11-25T15:22:07.501Z,101104.53
2022-11-25T15:24:40.394Z,101108.88
2022-11-25T15:27:23.088Z,101106.06
2022-11-25T15:29:52.297Z,101105.09
2022-11-25T15:32:26.295Z,101106.00
2022-11-25T15:34:56.220Z,101106.03
2022-11-25T15:37:24.390Z,101103.47
2022-11-25T15:40:28.936Z,101101.59
2022-11-25T15:43:02.511Z,101101.53
2022-11-25T15:45:45.794Z,101101.50
2022-11-25T15:48:18.407Z,101107.56
2022-11-25T15:50:45.887Z,101104.03
2022-11-25T15:53:27.621Z,101123.22
2022-11-25T15:56:01.570Z,101118.72
2022-11-25T15:58:29.183Z,101123.97
2022-11-25T16:01:07.540Z,101133.50
2022-11-25T16:03:35.667Z,101132.56
2022-11-25T16:06:28.330Z,101138.31
2022-11-25T16:09:01.019Z,101143.66
2022-11-25T16:11:33.542Z,101140.13
2022-11-25T16:14:26.298Z,101147.06
2022-11-25T16:17:03.270Z,101155.88
2022-11-25T16:19:38.155Z,101154.06
2022-11-25T16:22:06.362Z,101150.50
2022-11-25T16:24:38.503Z,101148.63
2022-11-25T16:27:27.977Z,101156.59
2022-11-25T16:30:16.997Z,101160.97
2022-11-25T16:32:44.569Z,101156.66
2022-11-25T16:35:18.426Z,101149.78
2022-11-25T16:37:49.306Z,101155.84
2022-11-25T16:40:19.085Z,101153.19
2022-11-25T16:42:48.814Z,101153.09
2022-11-25T16:45:28.120Z,101153.94
2022-11-25T16:47:55.638Z,101147.69
2022-11-25T16:50:23.565Z,101151.94
2022-11-25T16:52:51.018Z,101155.38
2022-11-25T16:55:18.699Z,101149.91
2022-11-25T16:57:46.949Z,101147.13
2022-11-25T17:00:17.034Z,101148.03
2022-11-25T17:02:45.263Z,101146.88
2022-11-25T17:05:24.726Z,101148.47
2022-11-25T17:07:52.882Z,101141.50
2022-11-25T17:10:20.682Z,101142.38
2022-11-25T17:12:48.691Z,101143.06
2022-11-25T17:15:24.514Z,101149.94
2022-11-25T17:17:52.514Z,101138.81
2022-11-25T17:20:24.868Z,101145.84
2022-11-25T17:22:53.718Z,101146.06
2022-11-25T17:25:23.547Z,101146.28
2022-11-25T17:27:51.696Z,101147.19
2022-11-25T17:30:23.600Z,101153.34
2022-11-25T17:33:06.693Z,101152.56
2022-11-25T17:35:34.057Z,101155.09
2022-11-25T17:38:01.817Z,101157.78
2022-11-25T17:40:29.373Z,101159.47
2022-11-25T17:42:57.193Z,101171.56
2022-11-25T17:45:24.721Z,101178.56
2022-11-25T17:47:52.176Z,101183.66
2022-11-25T17:50:22.478Z,101187.84
2022-11-25T17:52:50.500Z,101176.91
2022-11-25T17:55:22.034Z,101185.53
2022-11-25T17:57:49.746Z,101186.22
2022-11-25T18:00:20.957Z,101181.19
2022-11-25T18:02:49.689Z,101183.94
2022-11-25T18:05:20.475Z,101181.97
2022-11-25T18:07:48.152Z,101185.28
2022-11-25T18:10:21.850Z,101186.13
2022-11-25T18:12:52.264Z,101192.16
2022-11-25T18:15:25.366Z,101198.44
2022-11-25T18:18:04.082Z,101200.38
2022-11-25T18:20:33.152Z,101193.84
2022-11-25T18:23:01.259Z,101189.53
2022-11-25T18:25:33.931Z,101191.94
2022-11-25T18:28:03.954Z,101198.81
2022-11-25T18:30:34.237Z,101200.81
2022-11-25T18:33:02.230Z,101202.72
2022-11-25T18:35:36.489Z,101202.16
2022-11-25T18:38:04.950Z,101205.50
2022-11-25T18:40:33.631Z,101195.53
2022-11-25T18:43:03.414Z,101201.50
2022-11-25T18:45:34.376Z,101206.91
2022-11-25T18:48:02.367Z,101216.25
2022-11-25T18:50:31.574Z,101219.59
2022-11-25T18:52:59.045Z,101218.81
2022-11-25T18:55:27.077Z,101219.44
2022-11-25T18:57:54.622Z,101222.91
2022-11-25T19:00:32.242Z,101229.13
2022-11-25T19:03:01.271Z,101221.44
2022-11-25T19:05:32.390Z,101233.59
2022-11-25T19:07:59.995Z,101227.44
2022-11-25T19:10:31.322Z,101228.38
2022-11-25T19:13:02.866Z,101213.22
2022-11-25T19:15:30.376Z,101223.94
2022-11-25T19:18:00.838Z,101230.22
2022-11-25T19:20:30.112Z,101229.31
2022-11-25T19:23:00.892Z,101224.91
2022-11-25T19:25:29.483Z,101226.63
2022-11-25T19:27:59.576Z,101227.28
2022-11-25T19:30:30.449Z,101229.94
2022-11-25T19:33:01.486Z,101225.75
2022-11-25T19:35:35.766Z,101225.78
2022-11-25T19:38:11.261Z,101223.06
2022-11-25T19:40:40.394Z,101229.13
2022-11-25T19:43:08.756Z,101227.44
2022-11-25T19:45:37.267Z,101225.53
2022-11-25T19:48:08.274Z,101234.03
2022-11-25T19:50:38.915Z,101234.06
2022-11-25T19:53:14.077Z,101248.81
2022-11-25T19:55:41.752Z,101237.41
2022-11-25T19:58:09.162Z,101249.59
2022-11-25T20:00:36.957Z,101241.53
2022-11-25T20:03:06.167Z,101253.09
2022-11-25T20:05:38.143Z,101256.28
2022-11-25T20:08:06.204Z,101253.50
2022-11-25T20:10:33.609Z,101253.47
2022-11-25T20:13:00.991Z,101265.38
2022-11-25T20:15:28.362Z,101254.56
2022-11-25T20:18:00.250Z,101261.41
2022-11-25T20:20:40.682Z,101260.59
2022-11-25T20:23:15.404Z,101263.41
2022-11-25T20:25:45.828Z,101263.47
2022-11-25T20:28:25.866Z,101258.25
2022-11-25T20:30:53.919Z,101248.72
2022-11-25T20:33:24.616Z,101252.19
2022-11-25T20:36:03.305Z,101247.84
2022-11-25T20:38:32.860Z,101258.38
2022-11-25T20:41:01.052Z,101261.09
2022-11-25T20:43:38.837Z,101266.94
2022-11-25T20:46:13.773Z,101263.88
2022-11-25T20:48:42.296Z,101273.00
2022-11-25T20:51:18.903Z,101269.28
2022-11-25T20:53:58.452Z,101283.22
2022-11-25T20:56:28.036Z,101285.72
2022-11-25T20:58:57.445Z,101285.03
2022-11-25T21:01:25.267Z,101285.31
2022-11-25T21:03:53.814Z,101286.22
2022-11-25T21:06:27.600Z,101297.63
2022-11-25T21:08:58.422Z,101295.13
2022-11-25T21:11:27.936Z,101307.28
2022-11-25T21:13:55.572Z,101299.25
2022-11-25T21:16:23.196Z,101296.69
2022-11-25T21:18:50.706Z,101292.69
2022-11-25T21:21:45.416Z,101279.50
2022-11-25T21:24:32.171Z,101282.50
2022-11-25T21:27:02.843Z,101280.59
2022-11-25T21:29:31.621Z,101279.34
2022-11-25T21:31:59.242Z,101278.03
2022-11-25T21:34:26.794Z,101276.31
2022-11-25T21:36:54.859Z,101281.47
2022-11-25T21:39:30.234Z,101294.00
2022-11-25T21:42:05.002Z,101299.66
2022-11-25T21:44:39.666Z,101311.56
2022-11-25T21:47:13.178Z,101310.56
2022-11-25T21:49:40.638Z,101324.66
2022-11-25T21:52:08.047Z,101319.53
2022-11-25T21:54:35.807Z,101330.28
2022-11-25T21:57:03.571Z,101335.88
2022-11-25T21:59:31.468Z,101332.50
2022-11-25T22:01:58.846Z,101320.31
2022-11-25T22:04:26.439Z,101321.91
2022-11-25T22:06:54.516Z,101320.94
2022-11-25T22:09:22.278Z,101309.94
2022-11-25T22:11:50.578Z,101317.28
2022-11-25T22:14:34.685Z,101327.81
2022-11-25T22:17:05.349Z,101326.22
2022-11-25T22:19:33.208Z,101338.41
2022-11-25T22:22:00.736Z,101325.47
2022-11-25T22:24:29.849Z,101332.13
2022-11-25T22:26:58.327Z,101328.13
2022-11-25T22:29:32.830Z,101329.19
2022-11-25T22:32:00.788Z,101331.28
2022-11-25T22:34:28.630Z,101336.66
2022-11-25T22:36:56.094Z,101339.72
2022-11-25T22:39:25.777Z,101345.41
2022-11-25T22:42:03.503Z,101353.59
2022-11-25T22:44:45.766Z,101347.63
2022-11-25T22:47:36.196Z,101344.75
2022-11-25T22:50:14.187Z,101347.84
2022-11-25T22:52:41.601Z,101342.38
2022-11-25T22:55:18.140Z,101350.38
2022-11-25T22:57:46.772Z,101343.44
2022-11-25T23:00:20.410Z,101336.13
2022-11-25T23:02:49.073Z,101329.91
2022-11-25T23:05:24.485Z,101334.50
2022-11-25T23:07:55.493Z,101330.88
2022-11-25T23:10:26.498Z,101333.56
2022-11-25T23:12:54.849Z,101336.84
2022-11-25T23:15:24.203Z,101334.59
2022-11-25T23:17:56.949Z,101333.06
2022-11-25T23:20:34.872Z,101326.72
2022-11-25T23:23:12.418Z,101331.75
2022-11-25T23:25:39.762Z,101331.63
2022-11-25T23:28:07.241Z,101325.09
2022-11-25T23:30:35.191Z,101319.28
2022-11-25T23:33:04.096Z,101326.66
2022-11-25T23:35:38.600Z,101335.22
2022-11-25T23:38:08.813Z,101335.72
2022-11-25T23:40:36.375Z,101333.81
2022-11-25T23:43:11.954Z,101341.19
2022-11-25T23:45:44.498Z,101340.44
2022-11-25T23:48:12.103Z,101341.13
2022-11-25T23:50:40.823Z,101336.66
2022-11-25T23:53:21.340Z,101334.22
2022-11-25T23:55:49.812Z,101332.28
2022-11-25T23:58:20.239Z,101331.38
